createdAt,value
2022-08-20T00:02:13.752Z,10.50
2022-08-20T00:04:42.987Z,11.10
2022-08-20T00:07:10.788Z,10.40
2022-08-20T00:09:38.751Z,10.83
2022-08-20T00:12:07.892Z,11.53
2022-08-20T00:14:36.681Z,11.37
2022-08-20T00:17:06.335Z,11.07
2022-08-20T00:19:35.345Z,10.50
2022-08-20T00:22:04.978Z,10.57
2022-08-20T00:24:32.939Z,11.13
2022-08-20T00:27:00.745Z,11.43
2022-08-20T00:29:28.535Z,10.70
2022-08-20T00:31:56.363Z,10.93
2022-08-20T00:34:24.367Z,11.13
2022-08-20T00:36:52.301Z,11.67
2022-08-20T00:39:21.485Z,11.63
2022-08-20T00:41:49.326Z,12.17
2022-08-20T00:44:21.843Z,12.13
2022-08-20T00:46:51.928Z,12.97
2022-08-20T00:49:24.687Z,14.03
2022-08-20T00:51:58.552Z,13.37
2022-08-20T00:54:31.243Z,13.63
2022-08-20T00:57:03.771Z,13.33
2022-08-20T00:59:34.215Z,12.60
2022-08-20T01:02:03.325Z,13.90
2022-08-20T01:04:34.654Z,13.57
2022-08-20T01:07:05.248Z,13.67
2022-08-20T01:09:58.423Z,13.63
2022-08-20T01:12:24.010Z,14.73
2022-08-20T01:14:52.792Z,15.43
2022-08-20T01:17:24.543Z,15.80
2022-08-20T01:19:56.741Z,15.87
2022-08-20T01:22:45.573Z,15.70
2022-08-20T01:25:22.431Z,16.03
2022-08-20T01:27:55.423Z,17.03
2022-08-20T01:30:28.469Z,16.10
2022-08-20T01:32:57.122Z,17.17
2022-08-20T01:35:26.738Z,17.33
2022-08-20T01:37:54.780Z,17.00
2022-08-20T01:40:40.534Z,18.83
2022-08-20T01:43:09.996Z,18.77
2022-08-20T01:45:40.054Z,18.60
2022-08-20T01:48:08.203Z,19.50
2022-08-20T01:50:42.897Z,18.77
2022-08-20T01:53:18.852Z,20.07
2022-08-20T01:55:46.969Z,21.03
2022-08-20T01:58:16.290Z,22.33
2022-08-20T02:00:44.637Z,21.53
2022-08-20T02:03:12.440Z,21.73
2022-08-20T02:05:40.298Z,22.47
2022-08-20T02:08:08.136Z,22.93
2022-08-20T02:10:37.217Z,21.80
2022-08-20T02:13:08.721Z,23.47
2022-08-20T02:15:39.755Z,23.33
2022-08-20T02:18:13.521Z,24.20
2022-08-20T02:20:43.386Z,25.17
2022-08-20T02:23:12.996Z,26.00
2022-08-20T02:25:44.233Z,25.50
2022-08-20T02:28:15.053Z,26.00
2022-08-20T02:30:47.953Z,25.50
2022-08-20T02:33:17.433Z,25.53
2022-08-20T02:35:48.980Z,24.60
2022-08-20T02:38:17.004Z,25.33
2022-08-20T02:40:46.871Z,24.73
2022-08-20T02:43:15.439Z,25.37
2022-08-20T02:45:44.981Z,26.47
2022-08-20T02:48:21.197Z,26.30
2022-08-20T02:50:51.253Z,26.20
2022-08-20T02:53:19.701Z,25.10
2022-08-20T02:55:47.756Z,26.03
2022-08-20T02:58:15.952Z,23.93
2022-08-20T03:00:45.633Z,24.73
2022-08-20T03:03:14.552Z,23.90
2022-08-20T03:05:44.994Z,23.87
2022-08-20T03:08:14.642Z,25.23
2022-08-20T03:10:45.149Z,22.97
2022-08-20T03:13:14.241Z,26.93
2022-08-20T03:15:43.769Z,25.67
2022-08-20T03:18:14.474Z,25.73
2022-08-20T03:20:43.915Z,24.77
2022-08-20T03:23:14.764Z,25.50
2022-08-20T03:25:43.149Z,25.40
2022-08-20T03:28:11.487Z,26.03
2022-08-20T03:30:40.131Z,25.80
2022-08-20T03:33:08.743Z,25.70
2022-08-20T03:35:39.335Z,24.57
2022-08-20T03:38:10.023Z,27.27
2022-08-20T03:40:39.094Z,26.83
2022-08-20T03:43:08.624Z,26.90
2022-08-20T03:45:37.968Z,26.63
2022-08-20T03:48:08.159Z,26.30
2022-08-20T03:50:36.393Z,26.27
2022-08-20T03:53:05.736Z,26.20
2022-08-20T03:55:33.753Z,26.37
2022-08-20T03:58:04.174Z,26.57
2022-08-20T04:00:36.898Z,27.20
2022-08-20T04:03:06.431Z,26.33
2022-08-20T04:05:34.453Z,25.30
2022-08-20T04:08:03.686Z,27.27
2022-08-20T04:10:33.175Z,26.80
2022-08-20T04:13:01.619Z,27.13
2022-08-20T04:15:29.597Z,26.40
2022-08-20T04:17:59.433Z,25.47
2022-08-20T04:20:28.208Z,24.77
2022-08-20T04:22:59.185Z,26.23
2022-08-20T04:25:28.536Z,25.40
2022-08-20T04:27:59.497Z,25.27
2022-08-20T04:30:27.965Z,27.33
2022-08-20T04:32:56.367Z,26.30
2022-08-20T04:35:25.559Z,26.00
2022-08-20T04:38:00.061Z,25.37
2022-08-20T04:40:45.860Z,27.07
2022-08-20T04:43:15.355Z,24.63
2022-08-20T04:45:43.296Z,26.20
2022-08-20T04:48:14.910Z,25.80
2022-08-20T04:50:46.722Z,26.90
2022-08-20T04:53:20.709Z,26.03
2022-08-20T04:55:52.104Z,24.90
2022-08-20T04:58:25.598Z,26.20
2022-08-20T05:00:56.718Z,24.67
2022-08-20T05:03:29.829Z,24.40
2022-08-20T05:05:58.403Z,26.20
2022-08-20T05:08:27.398Z,25.73
2022-08-20T05:11:06.936Z,25.63
2022-08-20T05:13:46.985Z,25.53
2022-08-20T05:16:17.580Z,25.03
2022-08-20T05:18:46.403Z,25.63
2022-08-20T05:21:20.017Z,24.87
2022-08-20T05:23:49.309Z,25.67
2022-08-20T05:26:20.314Z,24.30
2022-08-20T05:28:57.497Z,23.83
2022-08-20T05:31:32.262Z,25.23
2022-08-20T05:34:02.436Z,23.20
2022-08-20T05:36:30.415Z,24.60
2022-08-20T05:38:58.427Z,25.13
2022-08-20T05:41:30.246Z,24.63
2022-08-20T05:44:01.851Z,22.67
2022-08-20T05:46:31.058Z,24.07
2022-08-20T05:49:00.120Z,22.10
2022-08-20T05:51:28.807Z,22.20
2022-08-20T05:53:58.314Z,20.50
2022-08-20T05:56:30.419Z,19.13
2022-08-20T05:59:02.663Z,20.33
2022-08-20T06:01:31.571Z,20.70
2022-08-20T06:04:17.357Z,19.13
2022-08-20T06:06:47.131Z,22.70
2022-08-20T06:09:30.952Z,22.90
2022-08-20T06:12:01.999Z,19.80
2022-08-20T06:14:32.300Z,20.33
2022-08-20T06:17:05.560Z,19.60
2022-08-20T06:19:34.690Z,18.60
2022-08-20T06:22:18.313Z,19.03
2022-08-20T06:24:51.204Z,18.73
2022-08-20T06:27:19.246Z,18.80
2022-08-20T06:29:49.133Z,17.33
2022-08-20T06:32:17.051Z,16.83
2022-08-20T06:34:50.987Z,16.23
2022-08-20T06:37:30.941Z,16.20
2022-08-20T06:40:02.913Z,15.87
2022-08-20T06:42:30.960Z,17.03
2022-08-20T06:45:00.502Z,15.80
2022-08-20T06:47:28.491Z,15.57
2022-08-20T06:49:56.309Z,14.93
2022-08-20T06:52:35.033Z,15.57
2022-08-20T06:55:12.912Z,14.97
2022-08-20T06:57:41.110Z,15.23
2022-08-20T07:00:14.707Z,15.23
2022-08-20T07:02:42.968Z,14.90
2022-08-20T07:05:11.391Z,14.30
2022-08-20T07:07:39.652Z,14.43
2022-08-20T07:10:09.523Z,13.83
2022-08-20T07:12:37.485Z,14.30
2022-08-20T07:15:05.627Z,14.57
2022-08-20T07:17:35.010Z,14.37
2022-08-20T07:20:05.213Z,14.87
2022-08-20T07:22:35.494Z,14.63
2022-08-20T07:25:04.069Z,12.33
2022-08-20T07:27:32.117Z,13.33
2022-08-20T07:30:17.449Z,12.73
2022-08-20T07:32:49.342Z,12.03
2022-08-20T07:35:18.986Z,12.80
2022-08-20T07:37:50.024Z,11.73
2022-08-20T07:40:25.679Z,11.67
2022-08-20T07:42:54.799Z,12.03
2022-08-20T07:45:23.826Z,11.63
2022-08-20T07:47:54.172Z,11.93
2022-08-20T07:50:24.804Z,11.43
2022-08-20T07:52:53.505Z,11.77
2022-08-20T07:55:22.893Z,10.57
2022-08-20T07:57:51.655Z,11.63
2022-08-20T08:00:21.449Z,11.93
2022-08-20T08:02:49.586Z,12.00
2022-08-20T08:05:19.177Z,11.87
2022-08-20T08:07:47.859Z,12.17
2022-08-20T08:10:19.417Z,11.20
2022-08-20T08:12:53.564Z,11.47
2022-08-20T08:15:25.749Z,11.90
2022-08-20T08:17:55.655Z,11.30
2022-08-20T08:20:25.145Z,10.63
2022-08-20T08:22:53.928Z,10.97
2022-08-20T08:25:22.118Z,10.37
2022-08-20T08:27:50.275Z,10.70
2022-08-20T08:30:18.542Z,11.57
2022-08-20T08:33:15.271Z,10.63
2022-08-20T08:35:47.924Z,9.80
2022-08-20T08:38:16.782Z,9.87
2022-08-20T08:40:45.322Z,9.97
2022-08-20T08:43:15.429Z,10.57
2022-08-20T08:45:56.036Z,10.07
2022-08-20T08:48:28.830Z,10.53
2022-08-20T08:50:59.528Z,11.17
2022-08-20T08:53:32.019Z,10.90
2022-08-20T08:56:00.077Z,10.67
2022-08-20T08:58:28.095Z,10.20
2022-08-20T09:00:57.750Z,11.17
2022-08-20T09:03:34.590Z,10.17
2022-08-20T09:06:05.213Z,10.20
2022-08-20T09:08:39.765Z,10.30
2022-08-20T09:11:10.002Z,10.23
2022-08-20T09:13:38.016Z,9.67
2022-08-20T09:16:06.240Z,10.23
2022-08-20T09:18:34.175Z,9.87
2022-08-20T09:21:03.485Z,9.60
2022-08-20T09:23:31.577Z,9.07
2022-08-20T09:25:59.656Z,9.27
2022-08-20T09:28:32.532Z,9.03
2022-08-20T09:31:03.433Z,9.63
2022-08-20T09:33:32.468Z,9.40
2022-08-20T09:36:00.320Z,9.70
2022-08-20T09:38:29.665Z,9.20
2022-08-20T09:40:57.545Z,8.93
2022-08-20T09:43:26.156Z,9.03
2022-08-20T09:45:54.021Z,9.33
2022-08-20T09:48:21.957Z,9.73
2022-08-20T09:51:00.284Z,9.63
2022-08-20T09:53:30.636Z,7.90
2022-08-20T09:56:00.157Z,9.40
2022-08-20T09:58:35.919Z,10.73
2022-08-20T10:01:11.159Z,9.27
2022-08-20T10:03:42.253Z,9.03
2022-08-20T10:06:11.146Z,9.73
2022-08-20T10:08:40.415Z,8.87
2022-08-20T10:11:08.316Z,9.83
2022-08-20T10:13:36.166Z,9.80
2022-08-20T10:16:04.496Z,9.00
2022-08-20T10:18:32.357Z,9.27
2022-08-20T10:21:00.213Z,9.00
2022-08-20T10:23:28.223Z,10.07
2022-08-20T10:25:57.454Z,10.17
2022-08-20T10:28:26.417Z,9.97
2022-08-20T10:30:54.332Z,9.67
2022-08-20T10:33:22.299Z,10.00
2022-08-20T10:35:50.319Z,9.57
2022-08-20T10:38:18.666Z,9.47
2022-08-20T10:40:52.218Z,9.57
2022-08-20T10:43:21.982Z,9.83
2022-08-20T10:45:49.814Z,10.17
2022-08-20T10:48:21.355Z,8.93
2022-08-20T10:50:49.796Z,9.77
2022-08-20T10:53:17.840Z,10.20
2022-08-20T10:55:46.069Z,10.20
2022-08-20T10:58:14.142Z,10.00
2022-08-20T11:00:43.343Z,12.87
2022-08-20T11:03:11.183Z,11.50
2022-08-20T11:05:39.197Z,10.63
2022-08-20T11:08:07.418Z,10.60
2022-08-20T11:10:36.709Z,9.53
2022-08-20T11:13:06.306Z,10.37
2022-08-20T11:15:36.592Z,10.00
2022-08-20T11:18:07.069Z,9.93
2022-08-20T11:20:35.870Z,10.47
2022-08-20T11:23:03.773Z,10.50
2022-08-20T11:25:32.195Z,10.80
2022-08-20T11:28:00.717Z,11.40
2022-08-20T11:30:33.158Z,11.03
2022-08-20T11:33:02.042Z,13.30
2022-08-20T11:35:48.633Z,13.80
2022-08-20T11:38:18.745Z,12.77
2022-08-20T11:40:47.602Z,11.80
2022-08-20T11:43:17.000Z,12.07
2022-08-20T11:45:47.055Z,10.53
2022-08-20T11:48:14.886Z,10.53
2022-08-20T11:50:44.195Z,10.70
2022-08-20T11:53:12.018Z,10.40
2022-08-20T11:55:40.368Z,9.37
2022-08-20T11:58:08.458Z,8.93
2022-08-20T12:00:37.429Z,8.67
2022-08-20T12:03:08.949Z,7.77
2022-08-20T12:05:37.619Z,8.87
2022-08-20T12:08:08.361Z,9.00
2022-08-20T12:10:36.986Z,8.57
2022-08-20T12:13:05.039Z,7.73
2022-08-20T12:15:33.117Z,7.67
2022-08-20T12:18:01.197Z,7.73
2022-08-20T12:20:29.067Z,7.37
2022-08-20T12:22:58.813Z,7.00
2022-08-20T12:25:28.273Z,6.97
2022-08-20T12:27:56.416Z,7.33
2022-08-20T12:30:25.434Z,7.67
2022-08-20T12:32:53.383Z,7.33
2022-08-20T12:35:21.661Z,6.83
2022-08-20T12:37:49.607Z,6.83
2022-08-20T12:40:30.824Z,6.80
2022-08-20T12:43:02.754Z,6.70
2022-08-20T12:45:30.699Z,7.13
2022-08-20T12:48:03.116Z,7.07
2022-08-20T12:50:31.798Z,6.73
2022-08-20T12:53:00.349Z,6.37
2022-08-20T12:55:28.317Z,7.00
2022-08-20T12:57:59.209Z,7.13
2022-08-20T13:00:31.435Z,6.17
2022-08-20T13:03:01.873Z,6.60
2022-08-20T13:05:31.011Z,6.67
2022-08-20T13:07:59.411Z,7.00
2022-08-20T13:10:29.696Z,6.60
2022-08-20T13:12:58.041Z,6.90
2022-08-20T13:15:27.919Z,7.10
2022-08-20T13:17:57.894Z,6.17
2022-08-20T13:20:34.209Z,6.73
2022-08-20T13:23:04.080Z,6.80
2022-08-20T13:25:32.627Z,6.80
2022-08-20T13:28:03.877Z,7.10
2022-08-20T13:30:34.115Z,6.70
2022-08-20T13:33:02.238Z,6.63
2022-08-20T13:35:31.173Z,6.30
2022-08-20T13:37:59.012Z,7.03
2022-08-20T13:40:27.751Z,6.67
2022-08-20T13:42:55.731Z,6.50
2022-08-20T13:45:23.832Z,6.57
2022-08-20T13:47:56.137Z,6.67
2022-08-20T13:50:26.026Z,6.40
2022-08-20T13:52:54.054Z,5.50
2022-08-20T13:55:24.639Z,3.67
2022-08-20T13:57:53.508Z,4.00
2022-08-20T14:00:30.919Z,3.20
2022-08-20T14:03:01.227Z,3.70
2022-08-20T14:05:29.551Z,3.90
2022-08-20T14:08:05.090Z,3.50
2022-08-20T14:10:33.061Z,3.30
2022-08-20T14:13:01.068Z,3.57
2022-08-20T14:15:28.892Z,2.90
2022-08-20T14:17:58.680Z,3.50
2022-08-20T14:20:31.951Z,2.87
2022-08-20T14:23:01.320Z,2.80
2022-08-20T14:25:30.137Z,2.60
2022-08-20T14:27:58.311Z,2.60
2022-08-20T14:30:28.789Z,2.83
2022-08-20T14:32:57.535Z,2.53
2022-08-20T14:35:25.477Z,2.27
2022-08-20T14:37:56.542Z,2.50
2022-08-20T14:40:26.912Z,2.40
2022-08-20T14:42:56.138Z,1.77
2022-08-20T14:45:24.577Z,2.00
2022-08-20T14:47:54.453Z,2.00
2022-08-20T14:50:26.011Z,1.80
2022-08-20T14:52:56.353Z,1.93
2022-08-20T14:55:28.609Z,2.23
2022-08-20T14:57:56.415Z,2.20
2022-08-20T15:00:27.554Z,2.10
2022-08-20T15:02:55.845Z,1.90
2022-08-20T15:05:24.231Z,2.13
2022-08-20T15:07:53.879Z,2.13
2022-08-20T15:10:26.753Z,2.17
2022-08-20T15:12:55.211Z,1.90
2022-08-20T15:15:23.960Z,1.87
2022-08-20T15:17:54.830Z,2.30
2022-08-20T15:20:24.789Z,1.97
2022-08-20T15:22:54.258Z,2.40
2022-08-20T15:25:27.031Z,2.60
2022-08-20T15:28:00.696Z,3.10
2022-08-20T15:30:31.151Z,2.73
2022-08-20T15:32:59.814Z,2.27
2022-08-20T15:35:29.040Z,2.13
2022-08-20T15:37:58.961Z,2.27
2022-08-20T15:40:31.640Z,2.10
2022-08-20T15:43:01.405Z,2.00
2022-08-20T15:45:29.915Z,2.20
2022-08-20T15:48:08.113Z,2.40
2022-08-20T15:50:55.604Z,2.20
2022-08-20T15:53:30.305Z,2.70
2022-08-20T15:56:08.127Z,2.90
2022-08-20T15:58:48.313Z,3.00
2022-08-20T16:01:32.643Z,3.13
2022-08-20T16:04:38.037Z,2.90
2022-08-20T16:07:21.513Z,2.80
2022-08-20T16:10:03.139Z,3.20
2022-08-20T16:12:35.682Z,3.30
2022-08-20T16:15:10.380Z,3.40
2022-08-20T16:17:44.893Z,2.97
2022-08-20T16:20:22.183Z,3.17
2022-08-20T16:22:53.218Z,3.17
2022-08-20T16:25:22.870Z,3.10
2022-08-20T16:28:04.032Z,4.30
2022-08-20T16:30:40.359Z,4.00
2022-08-20T16:33:12.167Z,3.27
2022-08-20T16:35:50.218Z,3.37
2022-08-20T16:38:23.518Z,3.10
2022-08-20T16:40:57.449Z,3.37
2022-08-20T16:43:32.682Z,3.20
2022-08-20T16:46:04.346Z,3.03
2022-08-20T16:48:39.553Z,2.77
2022-08-20T16:51:12.796Z,2.80
2022-08-20T16:53:40.769Z,3.07
2022-08-20T16:56:08.992Z,3.07
2022-08-20T16:58:38.310Z,2.40
2022-08-20T17:01:10.521Z,2.47
2022-08-20T17:03:40.617Z,2.80
2022-08-20T17:06:18.240Z,2.70
2022-08-20T17:08:51.115Z,2.43
2022-08-20T17:11:25.880Z,2.53
2022-08-20T17:14:09.300Z,2.80
2022-08-20T17:16:39.949Z,2.30
2022-08-20T17:19:11.611Z,2.77
2022-08-20T17:21:40.277Z,3.00
2022-08-20T17:24:16.521Z,3.13
2022-08-20T17:26:47.641Z,2.90
2022-08-20T17:29:20.332Z,3.00
2022-08-20T17:31:51.513Z,2.60
2022-08-20T17:34:22.566Z,2.93
2022-08-20T17:36:56.992Z,2.47
2022-08-20T17:39:28.718Z,3.10
2022-08-20T17:42:05.980Z,2.67
2022-08-20T17:44:39.173Z,2.90
2022-08-20T17:47:12.824Z,2.90
2022-08-20T17:50:01.838Z,2.90
2022-08-20T17:52:47.605Z,2.80
2022-08-20T17:55:15.511Z,3.17
2022-08-20T17:57:47.284Z,3.27
2022-08-20T18:00:23.392Z,3.10
2022-08-20T18:02:55.053Z,3.30
2022-08-20T18:05:24.300Z,3.23
2022-08-20T18:08:10.076Z,3.00
2022-08-20T18:10:44.383Z,3.70
2022-08-20T18:13:18.913Z,3.43
2022-08-20T18:15:54.785Z,3.73
2022-08-20T18:18:35.676Z,3.57
2022-08-20T18:21:43.646Z,3.60
2022-08-20T18:24:14.426Z,3.77
2022-08-20T18:26:47.939Z,3.87
2022-08-20T18:29:20.326Z,3.73
2022-08-20T18:31:52.520Z,3.67
2022-08-20T18:34:24.173Z,3.73
2022-08-20T18:36:57.099Z,3.87
2022-08-20T18:39:29.610Z,3.90
2022-08-20T18:42:01.222Z,4.07
2022-08-20T18:44:37.133Z,3.80
2022-08-20T18:47:09.021Z,3.90
2022-08-20T18:49:39.332Z,3.70
2022-08-20T18:52:12.512Z,4.20
2022-08-20T18:54:43.493Z,3.53
2022-08-20T18:57:20.585Z,3.60
2022-08-20T18:59:55.618Z,4.23
2022-08-20T19:02:27.130Z,3.83
2022-08-20T19:05:02.364Z,3.77
2022-08-20T19:07:47.933Z,3.60
2022-08-20T19:10:35.163Z,3.37
2022-08-20T19:13:35.969Z,3.60
2022-08-20T19:16:09.004Z,3.47
2022-08-20T19:18:46.904Z,3.70
2022-08-20T19:21:17.254Z,3.20
2022-08-20T19:23:50.256Z,3.90
2022-08-20T19:26:25.749Z,3.60
2022-08-20T19:28:56.616Z,4.20
2022-08-20T19:31:27.216Z,4.07
2022-08-20T19:34:20.348Z,3.60
2022-08-20T19:36:55.718Z,3.77
2022-08-20T19:39:25.584Z,3.47
2022-08-20T19:41:57.813Z,3.50
2022-08-20T19:44:33.921Z,3.40
2022-08-20T19:47:03.372Z,3.23
2022-08-20T19:49:42.858Z,2.97
2022-08-20T19:52:23.167Z,3.10
2022-08-20T19:54:53.854Z,3.03
2022-08-20T19:57:23.748Z,3.10
2022-08-20T19:59:54.505Z,2.90
2022-08-20T20:02:23.968Z,3.30
2022-08-20T20:04:55.799Z,3.50
2022-08-20T20:07:29.198Z,3.30
2022-08-20T20:09:59.321Z,3.37
2022-08-20T20:12:27.165Z,3.50
2022-08-20T20:14:56.101Z,3.07
2022-08-20T20:17:35.784Z,3.03
2022-08-20T20:20:23.031Z,2.80
2022-08-20T20:22:54.300Z,2.87
2022-08-20T20:25:25.021Z,2.93
2022-08-20T20:27:56.379Z,3.33
2022-08-20T20:30:28.546Z,2.93
2022-08-20T20:32:58.960Z,2.70
2022-08-20T20:35:33.125Z,2.90
2022-08-20T20:38:05.653Z,2.77
2022-08-20T20:40:43.688Z,2.70
2022-08-20T20:43:14.940Z,2.80
2022-08-20T20:45:46.872Z,2.70
2022-08-20T20:48:19.303Z,2.50
2022-08-20T20:50:51.124Z,2.43
2022-08-20T20:53:34.322Z,2.50
2022-08-20T20:56:32.310Z,2.50
2022-08-20T20:59:06.261Z,2.40
2022-08-20T21:01:48.274Z,2.50
2022-08-20T21:04:17.764Z,2.27
2022-08-20T21:06:46.953Z,2.20
2022-08-20T21:09:15.595Z,2.53
2022-08-20T21:11:43.399Z,2.40
2022-08-20T21:14:11.276Z,2.27
2022-08-20T21:16:39.075Z,2.40
2022-08-20T21:19:09.879Z,2.30
2022-08-20T21:21:38.869Z,2.47
2022-08-20T21:24:09.323Z,2.10
2022-08-20T21:26:37.781Z,2.40
2022-08-20T21:29:09.164Z,2.10
2022-08-20T21:31:43.659Z,2.30
2022-08-20T21:34:12.628Z,2.30
2022-08-20T21:36:41.110Z,2.20
2022-08-20T21:39:10.677Z,2.27
2022-08-20T21:41:39.720Z,2.17
2022-08-20T21:44:14.930Z,1.90
2022-08-20T21:46:43.242Z,2.20
2022-08-20T21:49:11.160Z,2.33
2022-08-20T21:51:38.942Z,1.90
2022-08-20T21:54:06.912Z,2.13
2022-08-20T21:56:36.843Z,2.10
2022-08-20T21:59:08.192Z,2.07
2022-08-20T22:01:36.616Z,2.13
2022-08-20T22:04:06.129Z,2.30
2022-08-20T22:06:34.318Z,2.00
2022-08-20T22:09:02.091Z,2.07
2022-08-20T22:11:30.046Z,2.20
2022-08-20T22:13:59.224Z,2.10
2022-08-20T22:16:27.296Z,1.80
2022-08-20T22:18:55.244Z,1.60
2022-08-20T22:21:25.880Z,2.00
2022-08-20T22:23:55.760Z,1.60
2022-08-20T22:26:23.825Z,1.70
2022-08-20T22:28:55.253Z,1.60
2022-08-20T22:31:29.756Z,1.93
2022-08-20T22:33:58.174Z,1.70
2022-08-20T22:36:29.074Z,1.70
2022-08-20T22:38:57.194Z,1.70
2022-08-20T22:41:25.211Z,1.50
2022-08-20T22:43:56.369Z,1.67
2022-08-20T22:46:29.299Z,1.67
2022-08-20T22:48:57.671Z,1.80
2022-08-20T22:51:30.395Z,1.50
2022-08-20T22:53:58.837Z,1.80
2022-08-20T22:56:26.887Z,1.50
2022-08-20T22:58:59.336Z,1.80
2022-08-20T23:01:29.764Z,1.43
2022-08-20T23:04:01.402Z,1.50
2022-08-20T23:06:31.863Z,1.40
2022-08-20T23:08:59.913Z,1.77
2022-08-20T23:11:27.825Z,1.63
2022-08-20T23:13:56.925Z,1.90
2022-08-20T23:16:25.445Z,1.47
2022-08-20T23:18:54.928Z,1.50
2022-08-20T23:21:23.149Z,1.60
2022-08-20T23:23:51.006Z,1.63
2022-08-20T23:26:22.413Z,1.50
2022-08-20T23:28:50.276Z,1.70
2022-08-20T23:31:18.667Z,1.73
2022-08-20T23:33:46.507Z,1.97
2022-08-20T23:36:20.572Z,1.63
2022-08-20T23:38:48.458Z,1.70
2022-08-20T23:41:16.332Z,1.70
2022-08-20T23:43:44.162Z,1.83
2022-08-20T23:46:12.883Z,1.80
2022-08-20T23:48:40.723Z,1.67
2022-08-20T23:51:08.580Z,1.70
2022-08-20T23:53:38.649Z,1.60
2022-08-20T23:56:06.856Z,1.40
2022-08-20T23:58:34.664Z,1.30
